createdAt,value
2018-06-21T00:00:44.425Z,17.77
2018-06-21T00:03:16.488Z,17.72
2018-06-21T00:05:48.632Z,17.72
2018-06-21T00:08:20.784Z,17.74
2018-06-21T00:10:52.952Z,17.78
2018-06-21T00:13:25.107Z,17.78
2018-06-21T00:15:57.275Z,17.66
2018-06-21T00:18:29.422Z,17.53
2018-06-21T00:21:01.903Z,17.49
2018-06-21T00:23:34.005Z,17.49
2018-06-21T00:26:06.189Z,17.35
2018-06-21T00:28:38.403Z,17.42
2018-06-21T00:31:10.947Z,17.51
2018-06-21T00:33:43.078Z,17.61
2018-06-21T00:36:15.396Z,17.51
2018-06-21T00:38:47.558Z,17.36
2018-06-21T00:41:19.679Z,17.35
2018-06-21T00:43:51.835Z,17.30
2018-06-21T00:46:23.924Z,17.21
2018-06-21T00:48:55.980Z,17.12
2018-06-21T00:51:28.086Z,17.16
2018-06-21T00:54:00.196Z,17.15
2018-06-21T00:56:32.263Z,17.07
2018-06-21T00:59:04.472Z,17.03
2018-06-21T01:01:36.560Z,17.12
2018-06-21T01:04:08.689Z,17.19
2018-06-21T01:06:40.783Z,17.15
2018-06-21T01:09:12.783Z,17.17
2018-06-21T01:11:44.863Z,17.21
2018-06-21T01:14:16.916Z,17.13
2018-06-21T01:16:48.983Z,17.03
2018-06-21T01:19:21.093Z,16.91
2018-06-21T01:21:53.168Z,17.00
2018-06-21T01:24:25.319Z,17.05
2018-06-21T01:26:57.475Z,16.99
2018-06-21T01:29:29.598Z,16.87
2018-06-21T01:32:01.957Z,16.89
2018-06-21T01:34:34.037Z,16.78
2018-06-21T01:37:06.191Z,16.66
2018-06-21T01:39:38.304Z,16.67
2018-06-21T01:42:10.581Z,16.64
2018-06-21T01:44:42.735Z,16.55
2018-06-21T01:47:14.853Z,16.59
2018-06-21T01:49:47.985Z,16.55
2018-06-21T01:52:20.109Z,16.57
2018-06-21T01:54:52.249Z,16.53
2018-06-21T01:57:24.507Z,16.55
2018-06-21T01:59:56.565Z,16.53
2018-06-21T02:02:28.661Z,16.55
2018-06-21T02:05:00.757Z,16.50
2018-06-21T02:07:33.004Z,16.51
2018-06-21T02:10:05.286Z,16.52
2018-06-21T02:12:37.724Z,16.45
2018-06-21T02:15:09.835Z,16.38
2018-06-21T02:17:41.889Z,16.44
2018-06-21T02:20:13.955Z,16.47
2018-06-21T02:22:46.143Z,16.36
2018-06-21T02:25:18.183Z,16.22
2018-06-21T02:27:50.324Z,16.14
2018-06-21T02:30:22.424Z,16.18
2018-06-21T02:32:54.483Z,16.32
2018-06-21T02:35:26.580Z,16.36
2018-06-21T02:37:58.686Z,16.45
2018-06-21T02:40:30.785Z,16.49
2018-06-21T02:43:03.004Z,16.41
2018-06-21T02:45:35.166Z,16.33
2018-06-21T02:48:07.255Z,16.31
2018-06-21T02:50:39.388Z,16.24
2018-06-21T02:53:11.492Z,16.15
2018-06-21T02:55:43.566Z,16.04
2018-06-21T02:58:15.603Z,16.09
2018-06-21T03:00:47.770Z,16.12
2018-06-21T03:03:19.822Z,16.09
2018-06-21T03:05:51.933Z,16.07
2018-06-21T03:08:23.983Z,16.04
2018-06-21T03:10:56.067Z,16.02
2018-06-21T03:13:28.167Z,16.04
2018-06-21T03:16:00.243Z,16.10
2018-06-21T03:18:32.388Z,16.13
2018-06-21T03:21:04.472Z,16.13
2018-06-21T03:23:36.563Z,16.08
2018-06-21T03:26:08.739Z,16.12
2018-06-21T03:28:40.851Z,16.11
2018-06-21T03:31:12.919Z,16.05
2018-06-21T03:33:44.995Z,16.05
2018-06-21T03:36:17.049Z,16.07
2018-06-21T03:38:49.127Z,16.12
2018-06-21T03:41:21.603Z,16.18
2018-06-21T03:43:53.670Z,16.26
2018-06-21T03:46:25.732Z,16.34
2018-06-21T03:48:57.772Z,16.44
2018-06-21T03:51:29.847Z,16.49
2018-06-21T03:54:01.919Z,16.57
2018-06-21T03:56:33.997Z,16.64
2018-06-21T03:59:06.204Z,16.72
2018-06-21T04:01:38.384Z,16.88
2018-06-21T04:04:10.558Z,17.01
2018-06-21T04:06:42.654Z,17.09
2018-06-21T04:09:14.740Z,17.23
2018-06-21T04:11:46.813Z,17.34
2018-06-21T04:14:18.955Z,17.44
2018-06-21T04:16:51.101Z,17.55
2018-06-21T04:19:23.148Z,17.62
2018-06-21T04:21:55.269Z,17.86
2018-06-21T04:24:27.361Z,18.75
2018-06-21T04:26:59.454Z,20.40
2018-06-21T04:29:31.504Z,21.30
2018-06-21T04:32:03.575Z,22.14
2018-06-21T04:34:35.728Z,22.73
2018-06-21T04:37:07.798Z,22.14
2018-06-21T04:39:39.868Z,22.56
2018-06-21T04:42:11.967Z,23.37
2018-06-21T04:44:44.141Z,23.74
2018-06-21T04:47:16.278Z,24.80
2018-06-21T04:49:48.389Z,25.34
2018-06-21T04:52:20.501Z,26.58
2018-06-21T04:54:52.597Z,26.42
2018-06-21T04:57:24.737Z,27.37
2018-06-21T04:59:56.893Z,27.64
2018-06-21T05:02:29.005Z,27.84
2018-06-21T05:05:01.101Z,27.84
2018-06-21T05:07:33.202Z,27.29
2018-06-21T05:10:05.461Z,27.77
2018-06-21T05:12:37.712Z,27.84
2018-06-21T05:15:09.957Z,28.61
2018-06-21T05:17:42.099Z,29.18
2018-06-21T05:20:14.247Z,29.16
2018-06-21T05:22:46.384Z,29.34
2018-06-21T05:25:18.466Z,28.51
2018-06-21T05:27:50.543Z,29.18
2018-06-21T05:30:22.683Z,28.39
2018-06-21T05:32:54.784Z,28.65
2018-06-21T05:35:26.898Z,29.63
2018-06-21T05:37:58.975Z,30.41
2018-06-21T05:40:32.212Z,29.70
2018-06-21T05:43:04.812Z,29.96
2018-06-21T05:45:36.908Z,30.03
2018-06-21T05:48:09.034Z,29.41
2018-06-21T05:50:41.242Z,28.71
2018-06-21T05:53:13.389Z,28.69
2018-06-21T05:55:45.623Z,29.64
2018-06-21T05:58:17.799Z,29.54
2018-06-21T06:00:57.901Z,31.17
2018-06-21T06:03:31.062Z,31.75
2018-06-21T06:06:03.222Z,31.36
2018-06-21T06:08:35.481Z,31.45
2018-06-21T06:11:09.462Z,30.99
2018-06-21T06:13:41.652Z,31.40
2018-06-21T06:16:13.731Z,31.18
2018-06-21T06:18:45.891Z,32.14
2018-06-21T06:21:18.209Z,32.45
2018-06-21T06:23:50.367Z,30.33
2018-06-21T06:26:22.448Z,29.37
2018-06-21T06:28:54.548Z,30.47
2018-06-21T06:31:26.667Z,29.44
2018-06-21T06:33:58.787Z,29.20
2018-06-21T06:36:32.368Z,31.16
2018-06-21T06:39:14.436Z,31.10
2018-06-21T06:41:49.679Z,30.87
2018-06-21T06:44:21.791Z,29.78
2018-06-21T06:46:54.212Z,29.89
2018-06-21T06:49:26.332Z,31.33
2018-06-21T06:51:58.443Z,31.13
2018-06-21T06:54:30.619Z,32.50
2018-06-21T06:57:02.809Z,32.67
2018-06-21T06:59:34.980Z,32.03
2018-06-21T07:02:07.114Z,32.56
2018-06-21T07:04:39.231Z,33.49
2018-06-21T07:07:11.355Z,34.50
2018-06-21T07:09:43.521Z,34.31
2018-06-21T07:12:15.612Z,35.21
2018-06-21T07:14:47.735Z,35.17
2018-06-21T07:17:19.755Z,34.65
2018-06-21T07:19:51.811Z,34.97
2018-06-21T07:22:23.903Z,36.48
2018-06-21T07:24:55.999Z,35.05
2018-06-21T07:27:28.082Z,34.48
2018-06-21T07:30:00.162Z,33.25
2018-06-21T07:32:32.203Z,32.79
2018-06-21T07:35:04.289Z,33.62
2018-06-21T07:37:36.419Z,34.27
2018-06-21T07:40:08.493Z,35.02
2018-06-21T07:42:40.631Z,35.90
2018-06-21T07:45:12.754Z,35.32
2018-06-21T07:47:44.923Z,34.44
2018-06-21T07:50:18.063Z,33.32
2018-06-21T07:52:50.157Z,34.60
2018-06-21T07:55:22.308Z,33.13
2018-06-21T07:57:54.451Z,32.59
2018-06-21T08:00:26.568Z,32.43
2018-06-21T08:02:58.731Z,32.57
2018-06-21T08:05:30.874Z,32.68
2018-06-21T08:08:03.797Z,33.43
2018-06-21T08:10:35.887Z,33.63
2018-06-21T08:13:09.131Z,35.20
2018-06-21T08:15:41.206Z,35.37
2018-06-21T08:18:13.569Z,35.32
2018-06-21T08:20:45.669Z,34.98
2018-06-21T08:23:17.858Z,35.36
2018-06-21T08:25:49.967Z,35.98
2018-06-21T08:28:22.031Z,36.19
2018-06-21T08:30:54.126Z,36.59
2018-06-21T08:33:26.270Z,35.60
2018-06-21T08:35:58.511Z,35.64
2018-06-21T08:38:30.612Z,34.68
2018-06-21T08:41:02.763Z,32.85
2018-06-21T08:43:35.480Z,33.60
2018-06-21T08:46:07.898Z,35.83
2018-06-21T08:48:40.092Z,37.05
2018-06-21T08:51:12.200Z,37.26
2018-06-21T08:53:44.342Z,37.03
2018-06-21T08:56:16.463Z,35.32
2018-06-21T08:58:49.013Z,33.85
2018-06-21T09:01:21.124Z,34.96
2018-06-21T09:03:53.259Z,34.98
2018-06-21T09:06:25.320Z,34.99
2018-06-21T09:08:57.427Z,35.53
2018-06-21T09:11:30.514Z,34.84
2018-06-21T09:14:02.671Z,34.20
2018-06-21T09:16:35.929Z,34.20
2018-06-21T09:19:08.051Z,34.78
2018-06-21T09:21:41.182Z,34.43
2018-06-21T09:24:13.236Z,34.17
2018-06-21T09:26:45.327Z,35.19
2018-06-21T09:29:17.497Z,34.77
2018-06-21T09:31:49.604Z,35.67
2018-06-21T09:34:21.719Z,37.30
2018-06-21T09:36:53.768Z,36.80
2018-06-21T09:39:31.437Z,37.49
2018-06-21T09:42:09.088Z,37.26
2018-06-21T09:45:01.922Z,36.82
2018-06-21T09:47:39.621Z,36.63
2018-06-21T09:50:16.211Z,36.13
2018-06-21T09:52:48.308Z,36.06
2018-06-21T09:55:20.375Z,36.26
2018-06-21T09:57:52.455Z,34.69
2018-06-21T10:00:30.295Z,34.68
2018-06-21T10:03:02.359Z,35.62
2018-06-21T10:05:34.477Z,35.16
2018-06-21T10:08:06.554Z,35.64
2018-06-21T10:10:38.698Z,36.12
2018-06-21T10:13:10.817Z,35.89
2018-06-21T10:15:43.061Z,35.81
2018-06-21T10:18:15.143Z,37.19
2018-06-21T10:20:48.389Z,36.64
2018-06-21T10:23:20.509Z,37.45
2018-06-21T10:25:52.653Z,37.05
2018-06-21T10:28:24.756Z,37.57
2018-06-21T10:30:56.815Z,36.88
2018-06-21T10:33:28.908Z,37.57
2018-06-21T10:36:01.043Z,36.71
2018-06-21T10:38:33.294Z,35.63
2018-06-21T10:41:05.385Z,35.59
2018-06-21T10:43:37.545Z,36.79
2018-06-21T10:46:10.727Z,36.76
2018-06-21T10:48:42.871Z,35.02
2018-06-21T10:51:15.001Z,34.69
2018-06-21T10:53:47.234Z,35.85
2018-06-21T10:56:19.427Z,36.44
2018-06-21T10:58:51.534Z,35.40
2018-06-21T11:01:25.303Z,34.07
2018-06-21T11:04:04.015Z,34.21
2018-06-21T11:06:40.219Z,34.95
2018-06-21T11:09:12.341Z,35.52
2018-06-21T11:11:44.984Z,35.36
2018-06-21T11:14:17.085Z,34.39
2018-06-21T11:16:49.221Z,34.49
2018-06-21T11:19:21.299Z,35.73
2018-06-21T11:21:53.440Z,36.54
2018-06-21T11:24:25.539Z,35.37
2018-06-21T11:26:57.677Z,34.45
2018-06-21T11:29:29.933Z,34.85
2018-06-21T11:32:02.088Z,35.06
2018-06-21T11:34:36.351Z,33.58
2018-06-21T11:37:08.532Z,35.24
2018-06-21T11:39:40.843Z,35.81
2018-06-21T11:42:13.045Z,37.49
2018-06-21T11:44:45.155Z,38.36
2018-06-21T11:47:18.293Z,37.43
2018-06-21T11:49:50.489Z,37.06
2018-06-21T11:52:22.720Z,36.49
2018-06-21T11:54:55.438Z,35.66
2018-06-21T11:57:41.344Z,35.11
2018-06-21T12:00:14.146Z,34.91
2018-06-21T12:02:46.295Z,35.13
2018-06-21T12:05:18.373Z,35.06
2018-06-21T12:07:50.489Z,34.55
2018-06-21T12:10:22.634Z,34.45
2018-06-21T12:12:54.735Z,34.71
2018-06-21T12:15:26.953Z,34.40
2018-06-21T12:17:59.072Z,34.54
2018-06-21T12:20:31.237Z,34.14
2018-06-21T12:23:03.853Z,34.25
2018-06-21T12:25:37.062Z,34.00
2018-06-21T12:28:09.640Z,33.37
2018-06-21T12:30:41.982Z,32.72
2018-06-21T12:33:17.518Z,32.95
2018-06-21T12:35:53.486Z,33.24
2018-06-21T12:38:26.370Z,33.41
2018-06-21T12:40:58.856Z,32.92
2018-06-21T12:43:31.054Z,31.92
2018-06-21T12:46:03.162Z,32.00
2018-06-21T12:48:35.292Z,31.53
2018-06-21T12:51:07.551Z,31.94
2018-06-21T12:53:39.928Z,31.97
2018-06-21T12:56:12.114Z,31.97
2018-06-21T12:58:44.290Z,31.32
2018-06-21T13:01:16.421Z,31.48
2018-06-21T13:03:49.151Z,31.78
2018-06-21T13:06:21.288Z,31.03
2018-06-21T13:09:04.959Z,31.15
2018-06-21T13:12:51.697Z,30.43
2018-06-21T13:15:25.772Z,29.71
2018-06-21T13:17:57.828Z,30.83
2018-06-21T13:20:29.929Z,31.62
2018-06-21T13:23:02.095Z,32.07
2018-06-21T13:25:34.261Z,32.88
2018-06-21T13:28:06.579Z,33.09
2018-06-21T13:30:38.696Z,32.11
2018-06-21T13:33:10.987Z,31.31
2018-06-21T13:35:43.235Z,32.96
2018-06-21T13:38:15.356Z,35.23
2018-06-21T13:40:47.482Z,34.98
2018-06-21T13:43:20.763Z,35.21
2018-06-21T13:45:52.887Z,33.76
2018-06-21T13:48:25.066Z,33.55
2018-06-21T13:50:57.230Z,34.58
2018-06-21T13:53:29.375Z,34.52
2018-06-21T13:56:01.540Z,33.67
2018-06-21T13:58:33.858Z,33.61
2018-06-21T14:01:05.975Z,30.98
2018-06-21T14:03:38.068Z,31.27
2018-06-21T14:06:10.220Z,31.74
2018-06-21T14:08:42.426Z,30.99
2018-06-21T14:11:14.456Z,31.11
2018-06-21T14:13:46.548Z,32.19
2018-06-21T14:16:18.649Z,33.02
2018-06-21T14:18:50.792Z,33.45
2018-06-21T14:21:23.132Z,32.55
2018-06-21T14:23:55.849Z,31.29
2018-06-21T14:26:27.923Z,30.82
2018-06-21T14:29:00.056Z,30.76
2018-06-21T14:31:32.182Z,30.69
2018-06-21T14:34:04.312Z,29.92
2018-06-21T14:36:36.500Z,29.45
2018-06-21T14:39:09.106Z,29.56
2018-06-21T14:41:41.367Z,30.25
2018-06-21T14:44:13.572Z,32.23
2018-06-21T14:46:45.683Z,32.11
2018-06-21T14:49:17.811Z,30.60
2018-06-21T14:51:49.972Z,30.56
2018-06-21T14:54:22.089Z,30.10
2018-06-21T14:56:54.232Z,30.18
2018-06-21T14:59:26.303Z,30.68
2018-06-21T15:01:58.475Z,29.89
2018-06-21T15:04:30.653Z,29.79
2018-06-21T15:07:02.844Z,29.95
2018-06-21T15:09:35.090Z,29.42
2018-06-21T15:12:07.181Z,29.31
2018-06-21T15:14:39.318Z,28.59
2018-06-21T15:17:11.400Z,28.05
2018-06-21T15:19:43.546Z,27.92
2018-06-21T15:22:15.636Z,28.02
2018-06-21T15:24:47.791Z,27.92
2018-06-21T15:27:19.948Z,27.46
2018-06-21T15:29:52.305Z,27.81
2018-06-21T15:32:24.448Z,28.62
2018-06-21T15:34:56.561Z,29.20
2018-06-21T15:37:28.728Z,29.34
2018-06-21T15:40:00.919Z,29.65
2018-06-21T15:42:33.140Z,29.63
2018-06-21T15:45:05.332Z,30.02
2018-06-21T15:47:37.529Z,30.29
2018-06-21T15:50:09.723Z,29.36
2018-06-21T15:52:41.853Z,29.09
2018-06-21T15:55:13.941Z,28.86
2018-06-21T15:57:46.000Z,28.85
2018-06-21T16:00:18.212Z,28.72
2018-06-21T16:02:50.567Z,28.22
2018-06-21T16:05:22.709Z,28.47
2018-06-21T16:07:54.829Z,28.91
2018-06-21T16:10:26.901Z,28.16
2018-06-21T16:12:59.293Z,27.82
2018-06-21T16:15:31.418Z,27.52
2018-06-21T16:18:03.709Z,28.48
2018-06-21T16:20:35.867Z,29.13
2018-06-21T16:23:08.095Z,28.82
2018-06-21T16:25:40.333Z,28.37
2018-06-21T16:28:14.709Z,28.40
2018-06-21T16:30:46.919Z,28.22
2018-06-21T16:33:21.121Z,27.82
2018-06-21T16:35:53.184Z,27.91
2018-06-21T16:38:25.315Z,27.46
2018-06-21T16:40:57.440Z,27.68
2018-06-21T16:43:29.426Z,28.26
2018-06-21T16:46:01.566Z,27.68
2018-06-21T16:48:33.759Z,27.65
2018-06-21T16:51:05.965Z,26.56
2018-06-21T16:53:38.094Z,25.51
2018-06-21T16:56:11.387Z,25.12
2018-06-21T16:58:44.058Z,24.85
2018-06-21T17:01:16.426Z,24.84
2018-06-21T17:03:48.700Z,25.24
2018-06-21T17:06:22.917Z,25.30
2018-06-21T17:08:54.985Z,25.74
2018-06-21T17:11:27.087Z,25.41
2018-06-21T17:13:59.207Z,25.28
2018-06-21T17:16:31.416Z,25.24
2018-06-21T17:19:04.960Z,24.92
2018-06-21T17:21:37.338Z,24.75
2018-06-21T17:24:09.486Z,24.50
2018-06-21T17:26:41.581Z,24.49
2018-06-21T17:29:14.101Z,24.23
2018-06-21T17:31:46.751Z,23.77
2018-06-21T17:34:19.049Z,23.50
2018-06-21T17:36:51.201Z,23.59
2018-06-21T17:39:23.179Z,23.98
2018-06-21T17:41:55.515Z,23.82
2018-06-21T17:44:27.789Z,23.64
2018-06-21T17:46:59.972Z,23.13
2018-06-21T17:49:32.072Z,22.96
2018-06-21T17:52:05.099Z,22.74
2018-06-21T17:54:37.493Z,22.64
2018-06-21T17:57:09.631Z,22.64
2018-06-21T17:59:41.732Z,22.78
2018-06-21T18:02:13.960Z,22.78
2018-06-21T18:04:46.020Z,22.77
2018-06-21T18:07:18.251Z,22.43
2018-06-21T18:09:50.507Z,22.40
2018-06-21T18:12:22.603Z,22.55
2018-06-21T18:14:54.678Z,22.62
2018-06-21T18:17:26.765Z,22.81
2018-06-21T18:19:58.842Z,22.73
2018-06-21T18:22:30.936Z,22.56
2018-06-21T18:25:03.361Z,22.40
2018-06-21T18:27:35.476Z,22.28
2018-06-21T18:30:07.620Z,22.09
2018-06-21T18:32:39.780Z,22.07
2018-06-21T18:35:11.872Z,22.02
2018-06-21T18:37:43.971Z,21.72
2018-06-21T18:40:16.063Z,21.45
2018-06-21T18:42:48.262Z,21.39
2018-06-21T18:45:20.347Z,21.27
2018-06-21T18:47:52.503Z,21.17
2018-06-21T18:50:24.568Z,21.15
2018-06-21T18:52:56.655Z,21.03
2018-06-21T18:55:28.766Z,20.91
2018-06-21T18:58:00.911Z,20.78
2018-06-21T19:00:33.008Z,20.66
2018-06-21T19:03:05.156Z,20.60
2018-06-21T19:05:37.262Z,20.56
2018-06-21T19:10:18.497Z,20.57
2018-06-21T19:12:50.595Z,20.36
2018-06-21T19:15:22.775Z,20.34
2018-06-21T19:17:54.840Z,20.29
2018-06-21T19:20:26.924Z,20.16
2018-06-21T19:22:59.136Z,20.20
2018-06-21T19:25:31.547Z,20.19
2018-06-21T19:28:03.688Z,20.16
2018-06-21T19:30:35.882Z,20.00
2018-06-21T19:33:08.019Z,19.91
2018-06-21T19:35:40.149Z,19.85
2018-06-21T19:38:12.281Z,19.76
2018-06-21T19:40:44.348Z,19.79
2018-06-21T19:43:16.466Z,19.80
2018-06-21T19:45:48.560Z,19.75
2018-06-21T19:48:20.634Z,19.79
2018-06-21T19:50:52.680Z,19.68
2018-06-21T19:53:24.804Z,19.55
2018-06-21T19:55:56.971Z,19.45
2018-06-21T19:58:29.068Z,19.44
2018-06-21T20:01:01.157Z,19.43
2018-06-21T20:03:33.332Z,19.36
2018-06-21T20:06:05.492Z,19.29
2018-06-21T20:08:37.608Z,19.29
2018-06-21T20:11:15.454Z,19.25
2018-06-21T20:13:49.564Z,19.19
2018-06-21T20:16:21.792Z,19.17
2018-06-21T20:18:53.949Z,19.25
2018-06-21T20:21:26.115Z,19.31
2018-06-21T20:23:58.205Z,19.41
2018-06-21T20:26:31.374Z,19.31
2018-06-21T20:29:03.491Z,19.38
2018-06-21T20:31:35.564Z,19.40
2018-06-21T20:34:07.637Z,19.47
2018-06-21T20:36:39.791Z,19.39
2018-06-21T20:39:12.076Z,19.33
2018-06-21T20:41:44.177Z,19.31
2018-06-21T20:44:16.299Z,19.30
2018-06-21T20:46:48.359Z,19.22
2018-06-21T20:49:20.431Z,19.16
2018-06-21T20:51:52.546Z,19.03
2018-06-21T20:54:24.667Z,18.97
2018-06-21T20:56:56.835Z,18.90
2018-06-21T20:59:29.055Z,18.78
2018-06-21T21:02:01.155Z,18.71
2018-06-21T21:05:09.917Z,18.76
2018-06-21T21:07:42.883Z,18.68
2018-06-21T21:10:16.094Z,18.70
2018-06-21T21:12:48.198Z,18.72
2018-06-21T21:15:20.361Z,18.72
2018-06-21T21:17:52.435Z,18.74
2018-06-21T21:20:24.582Z,18.69
2018-06-21T21:22:57.720Z,18.66
2018-06-21T21:25:29.817Z,18.57
2018-06-21T21:28:01.858Z,18.56
2018-06-21T21:30:33.940Z,18.45
2018-06-21T21:33:06.094Z,18.49
2018-06-21T21:35:38.197Z,18.42
2018-06-21T21:38:10.315Z,18.37
2018-06-21T21:40:42.419Z,18.40
2018-06-21T21:43:14.509Z,18.45
2018-06-21T21:45:46.616Z,18.46
2018-06-21T21:48:18.703Z,18.40
2018-06-21T21:50:50.772Z,18.36
2018-06-21T21:53:22.873Z,18.34
2018-06-21T21:55:54.969Z,18.26
2018-06-21T21:58:27.057Z,18.25
2018-06-21T22:00:59.276Z,18.14
2018-06-21T22:03:31.407Z,18.07
2018-06-21T22:06:03.513Z,17.98
2018-06-21T22:08:35.605Z,17.91
2018-06-21T22:11:07.728Z,17.82
2018-06-21T22:13:39.818Z,17.72
2018-06-21T22:16:11.899Z,17.60
2018-06-21T22:18:44.004Z,17.52
2018-06-21T22:21:16.131Z,17.37
2018-06-21T22:23:48.169Z,17.33
2018-06-21T22:26:20.263Z,17.25
2018-06-21T22:28:52.356Z,17.17
2018-06-21T22:31:24.451Z,17.06
2018-06-21T22:33:56.481Z,16.97
2018-06-21T22:36:28.606Z,16.91
2018-06-21T22:39:00.696Z,16.78
2018-06-21T22:41:32.773Z,16.77
2018-06-21T22:44:04.878Z,16.63
2018-06-21T22:46:36.948Z,16.66
2018-06-21T22:49:09.496Z,16.67
2018-06-21T22:51:41.617Z,16.55
2018-06-21T22:54:13.780Z,16.45
2018-06-21T22:56:45.891Z,16.36
2018-06-21T22:59:17.977Z,16.35
2018-06-21T23:01:50.107Z,16.28
2018-06-21T23:04:22.256Z,16.18
2018-06-21T23:06:54.371Z,16.04
2018-06-21T23:09:26.468Z,15.87
2018-06-21T23:11:58.559Z,15.72
2018-06-21T23:14:30.672Z,15.62
2018-06-21T23:17:02.767Z,15.54
2018-06-21T23:19:34.835Z,15.52
2018-06-21T23:22:06.903Z,15.46
2018-06-21T23:24:38.965Z,15.39
2018-06-21T23:27:11.027Z,15.24
2018-06-21T23:29:43.143Z,15.10
2018-06-21T23:32:15.225Z,14.99
2018-06-21T23:34:47.287Z,14.94
2018-06-21T23:37:19.388Z,14.79
2018-06-21T23:39:51.469Z,14.74
2018-06-21T23:42:23.537Z,14.69
2018-06-21T23:44:55.597Z,14.70
2018-06-21T23:47:27.676Z,14.49
2018-06-21T23:49:59.748Z,14.42
2018-06-21T23:52:31.860Z,14.35
2018-06-21T23:55:03.967Z,14.26
2018-06-21T23:57:36.024Z,14.21
